sensor_id;sensor_type;location;lat;lon;timestamp;P1;durP1;ratioP1;P2;durP2;ratioP2
12844;SDS011;68700;48.534;9.196;2023-05-19T00:00:14;5.90;;;3.83;;
12844;SDS011;68700;48.534;9.196;2023-05-19T00:03:37;8.50;;;3.57;;
12844;SDS011;68700;48.534;9.196;2023-05-19T00:07:01;8.10;;;4.13;;
12844;SDS011;68700;48.534;9.196;2023-05-19T00:10:24;7.57;;;4.30;;
12844;SDS011;68700;48.534;9.196;2023-05-19T00:13:50;7.53;;;3.80;;
12844;SDS011;68700;48.534;9.196;2023-05-19T00:17:14;7.63;;;3.80;;
12844;SDS011;68700;48.534;9.196;2023-05-19T00:20:36;6.00;;;4.03;;
12844;SDS011;68700;48.534;9.196;2023-05-19T00:23:58;6.60;;;3.67;;
12844;SDS011;68700;48.534;9.196;2023-05-19T00:27:20;5.13;;;3.70;;
12844;SDS011;68700;48.534;9.196;2023-05-19T00:30:42;7.40;;;3.80;;
12844;SDS011;68700;48.534;9.196;2023-05-19T00:34:05;6.67;;;3.90;;
12844;SDS011;68700;48.534;9.196;2023-05-19T00:37:27;5.93;;;3.40;;
12844;SDS011;68700;48.534;9.196;2023-05-19T00:40:49;5.87;;;3.70;;
12844;SDS011;68700;48.534;9.196;2023-05-19T00:44:11;5.23;;;3.43;;
12844;SDS011;68700;48.534;9.196;2023-05-19T00:47:32;7.20;;;3.43;;
12844;SDS011;68700;48.534;9.196;2023-05-19T00:50:56;8.43;;;3.83;;
12844;SDS011;68700;48.534;9.196;2023-05-19T00:54:23;5.13;;;3.23;;
12844;SDS011;68700;48.534;9.196;2023-05-19T00:57:45;6.57;;;3.30;;
12844;SDS011;68700;48.534;9.196;2023-05-19T01:01:08;6.20;;;3.43;;
12844;SDS011;68700;48.534;9.196;2023-05-19T01:04:31;5.83;;;3.07;;
12844;SDS011;68700;48.534;9.196;2023-05-19T01:07:57;5.80;;;3.57;;
12844;SDS011;68700;48.534;9.196;2023-05-19T01:11:19;5.93;;;3.40;;
12844;SDS011;68700;48.534;9.196;2023-05-19T01:14:41;5.13;;;2.90;;
12844;SDS011;68700;48.534;9.196;2023-05-19T01:18:04;4.57;;;2.80;;
12844;SDS011;68700;48.534;9.196;2023-05-19T01:25:38;4.40;;;2.80;;
12844;SDS011;68700;48.534;9.196;2023-05-19T01:29:28;4.80;;;2.87;;
12844;SDS011;68700;48.534;9.196;2023-05-19T01:33:03;4.83;;;2.97;;
12844;SDS011;68700;48.534;9.196;2023-05-19T01:36:27;4.50;;;3.07;;
12844;SDS011;68700;48.534;9.196;2023-05-19T01:39:50;4.53;;;2.50;;
12844;SDS011;68700;48.534;9.196;2023-05-19T01:43:15;5.00;;;3.00;;
12844;SDS011;68700;48.534;9.196;2023-05-19T01:46:39;5.47;;;2.93;;
12844;SDS011;68700;48.534;9.196;2023-05-19T01:50:03;4.73;;;2.90;;
12844;SDS011;68700;48.534;9.196;2023-05-19T01:53:26;6.10;;;3.20;;
12844;SDS011;68700;48.534;9.196;2023-05-19T01:56:49;4.37;;;3.20;;
12844;SDS011;68700;48.534;9.196;2023-05-19T02:00:17;4.13;;;2.60;;
12844;SDS011;68700;48.534;9.196;2023-05-19T02:03:48;3.73;;;2.90;;
12844;SDS011;68700;48.534;9.196;2023-05-19T02:07:21;6.17;;;3.10;;
12844;SDS011;68700;48.534;9.196;2023-05-19T02:10:57;4.10;;;2.93;;
12844;SDS011;68700;48.534;9.196;2023-05-19T02:14:24;5.00;;;3.43;;
12844;SDS011;68700;48.534;9.196;2023-05-19T02:17:50;5.37;;;3.40;;
12844;SDS011;68700;48.534;9.196;2023-05-19T02:21:13;5.67;;;3.20;;
12844;SDS011;68700;48.534;9.196;2023-05-19T02:24:36;5.20;;;3.13;;
12844;SDS011;68700;48.534;9.196;2023-05-19T02:27:58;7.30;;;3.27;;
12844;SDS011;68700;48.534;9.196;2023-05-19T02:31:20;6.60;;;3.00;;
12844;SDS011;68700;48.534;9.196;2023-05-19T02:34:42;4.57;;;3.40;;
12844;SDS011;68700;48.534;9.196;2023-05-19T02:38:04;5.20;;;3.10;;
12844;SDS011;68700;48.534;9.196;2023-05-19T02:41:27;6.00;;;3.40;;
12844;SDS011;68700;48.534;9.196;2023-05-19T02:44:49;4.43;;;3.37;;
12844;SDS011;68700;48.534;9.196;2023-05-19T02:48:11;6.27;;;3.40;;
12844;SDS011;68700;48.534;9.196;2023-05-19T02:51:33;4.07;;;3.20;;
12844;SDS011;68700;48.534;9.196;2023-05-19T02:54:55;7.40;;;3.50;;
12844;SDS011;68700;48.534;9.196;2023-05-19T02:58:18;4.83;;;3.30;;
12844;SDS011;68700;48.534;9.196;2023-05-19T03:01:40;4.50;;;3.27;;
12844;SDS011;68700;48.534;9.196;2023-05-19T03:05:02;4.10;;;3.70;;
12844;SDS011;68700;48.534;9.196;2023-05-19T03:08:24;5.27;;;3.80;;
12844;SDS011;68700;48.534;9.196;2023-05-19T03:11:46;4.90;;;3.90;;
12844;SDS011;68700;48.534;9.196;2023-05-19T03:15:10;7.47;;;3.70;;
12844;SDS011;68700;48.534;9.196;2023-05-19T03:18:34;7.23;;;3.60;;
12844;SDS011;68700;48.534;9.196;2023-05-19T03:21:56;3.70;;;3.00;;
12844;SDS011;68700;48.534;9.196;2023-05-19T03:25:18;5.10;;;3.77;;
12844;SDS011;68700;48.534;9.196;2023-05-19T03:28:39;5.60;;;3.53;;
12844;SDS011;68700;48.534;9.196;2023-05-19T03:32:03;6.07;;;3.50;;
12844;SDS011;68700;48.534;9.196;2023-05-19T03:35:25;5.70;;;3.70;;
12844;SDS011;68700;48.534;9.196;2023-05-19T03:38:47;4.53;;;3.40;;
12844;SDS011;68700;48.534;9.196;2023-05-19T03:42:09;6.73;;;3.53;;
12844;SDS011;68700;48.534;9.196;2023-05-19T03:45:31;7.77;;;3.93;;
12844;SDS011;68700;48.534;9.196;2023-05-19T03:48:54;5.17;;;3.47;;
12844;SDS011;68700;48.534;9.196;2023-05-19T03:52:16;5.47;;;3.30;;
12844;SDS011;68700;48.534;9.196;2023-05-19T03:55:37;5.87;;;3.97;;
12844;SDS011;68700;48.534;9.196;2023-05-19T03:58:59;4.60;;;3.23;;
12844;SDS011;68700;48.534;9.196;2023-05-19T04:02:21;6.77;;;3.30;;
12844;SDS011;68700;48.534;9.196;2023-05-19T04:05:44;4.67;;;3.60;;
12844;SDS011;68700;48.534;9.196;2023-05-19T04:09:09;5.33;;;3.50;;
12844;SDS011;68700;48.534;9.196;2023-05-19T04:12:33;4.30;;;3.70;;
12844;SDS011;68700;48.534;9.196;2023-05-19T04:15:55;6.13;;;3.83;;
12844;SDS011;68700;48.534;9.196;2023-05-19T04:19:17;4.90;;;3.80;;
12844;SDS011;68700;48.534;9.196;2023-05-19T04:22:40;5.33;;;3.43;;
12844;SDS011;68700;48.534;9.196;2023-05-19T04:26:02;5.60;;;3.93;;
12844;SDS011;68700;48.534;9.196;2023-05-19T04:29:27;5.20;;;3.23;;
12844;SDS011;68700;48.534;9.196;2023-05-19T04:32:49;5.67;;;3.60;;
12844;SDS011;68700;48.534;9.196;2023-05-19T04:36:10;6.43;;;3.80;;
12844;SDS011;68700;48.534;9.196;2023-05-19T04:39:37;5.40;;;3.73;;
12844;SDS011;68700;48.534;9.196;2023-05-19T04:43:02;6.10;;;3.57;;
12844;SDS011;68700;48.534;9.196;2023-05-19T04:46:24;6.57;;;3.37;;
12844;SDS011;68700;48.534;9.196;2023-05-19T04:49:48;6.73;;;3.80;;
12844;SDS011;68700;48.534;9.196;2023-05-19T04:53:14;4.33;;;3.70;;
12844;SDS011;68700;48.534;9.196;2023-05-19T04:56:38;5.60;;;3.67;;
12844;SDS011;68700;48.534;9.196;2023-05-19T05:00:01;7.93;;;4.07;;
12844;SDS011;68700;48.534;9.196;2023-05-19T05:03:26;5.57;;;3.43;;
12844;SDS011;68700;48.534;9.196;2023-05-19T05:06:49;6.27;;;3.43;;
12844;SDS011;68700;48.534;9.196;2023-05-19T05:10:11;5.77;;;3.77;;
12844;SDS011;68700;48.534;9.196;2023-05-19T05:13:35;5.10;;;3.67;;
12844;SDS011;68700;48.534;9.196;2023-05-19T05:16:57;8.00;;;3.73;;
12844;SDS011;68700;48.534;9.196;2023-05-19T05:20:20;5.10;;;3.37;;
12844;SDS011;68700;48.534;9.196;2023-05-19T05:23:43;9.00;;;3.93;;
12844;SDS011;68700;48.534;9.196;2023-05-19T05:27:05;5.90;;;3.63;;
12844;SDS011;68700;48.534;9.196;2023-05-19T05:30:28;6.83;;;4.07;;
12844;SDS011;68700;48.534;9.196;2023-05-19T05:33:50;7.97;;;3.70;;
12844;SDS011;68700;48.534;9.196;2023-05-19T05:37:12;6.77;;;3.83;;
12844;SDS011;68700;48.534;9.196;2023-05-19T05:40:34;8.23;;;4.30;;
12844;SDS011;68700;48.534;9.196;2023-05-19T05:43:56;6.47;;;3.60;;
12844;SDS011;68700;48.534;9.196;2023-05-19T05:47:20;8.20;;;3.93;;
12844;SDS011;68700;48.534;9.196;2023-05-19T05:50:42;6.93;;;4.00;;
12844;SDS011;68700;48.534;9.196;2023-05-19T05:54:05;6.97;;;3.40;;
12844;SDS011;68700;48.534;9.196;2023-05-19T05:57:27;6.30;;;3.67;;
12844;SDS011;68700;48.534;9.196;2023-05-19T06:00:50;5.17;;;2.90;;
12844;SDS011;68700;48.534;9.196;2023-05-19T06:04:15;6.80;;;3.30;;
12844;SDS011;68700;48.534;9.196;2023-05-19T06:07:37;5.97;;;3.23;;
12844;SDS011;68700;48.534;9.196;2023-05-19T06:10:59;6.13;;;3.13;;
12844;SDS011;68700;48.534;9.196;2023-05-19T06:14:27;8.97;;;3.60;;
12844;SDS011;68700;48.534;9.196;2023-05-19T06:17:48;8.00;;;4.00;;
12844;SDS011;68700;48.534;9.196;2023-05-19T06:21:12;6.10;;;3.60;;
12844;SDS011;68700;48.534;9.196;2023-05-19T06:24:34;7.37;;;3.80;;
12844;SDS011;68700;48.534;9.196;2023-05-19T06:27:56;4.47;;;3.30;;
12844;SDS011;68700;48.534;9.196;2023-05-19T06:31:17;8.87;;;3.80;;
12844;SDS011;68700;48.534;9.196;2023-05-19T06:34:39;5.73;;;3.40;;
12844;SDS011;68700;48.534;9.196;2023-05-19T06:38:03;7.67;;;3.50;;
12844;SDS011;68700;48.534;9.196;2023-05-19T06:41:24;8.53;;;3.60;;
12844;SDS011;68700;48.534;9.196;2023-05-19T06:44:46;5.93;;;3.40;;
12844;SDS011;68700;48.534;9.196;2023-05-19T06:48:09;9.27;;;3.37;;
12844;SDS011;68700;48.534;9.196;2023-05-19T06:51:31;6.80;;;3.73;;
12844;SDS011;68700;48.534;9.196;2023-05-19T06:54:55;6.23;;;3.27;;
12844;SDS011;68700;48.534;9.196;2023-05-19T06:58:17;5.63;;;3.43;;
12844;SDS011;68700;48.534;9.196;2023-05-19T07:01:39;6.20;;;3.23;;
12844;SDS011;68700;48.534;9.196;2023-05-19T07:05:01;5.80;;;3.20;;
12844;SDS011;68700;48.534;9.196;2023-05-19T07:08:23;11.53;;;4.80;;
12844;SDS011;68700;48.534;9.196;2023-05-19T07:11:48;7.87;;;4.20;;
12844;SDS011;68700;48.534;9.196;2023-05-19T07:15:10;7.27;;;3.87;;
12844;SDS011;68700;48.534;9.196;2023-05-19T07:18:32;8.00;;;3.77;;
12844;SDS011;68700;48.534;9.196;2023-05-19T07:21:54;6.00;;;3.10;;
12844;SDS011;68700;48.534;9.196;2023-05-19T07:25:16;7.63;;;3.63;;
12844;SDS011;68700;48.534;9.196;2023-05-19T07:28:39;6.87;;;3.10;;
12844;SDS011;68700;48.534;9.196;2023-05-19T07:32:01;7.27;;;3.80;;
12844;SDS011;68700;48.534;9.196;2023-05-19T07:35:24;7.90;;;3.63;;
12844;SDS011;68700;48.534;9.196;2023-05-19T07:38:46;6.77;;;3.53;;
12844;SDS011;68700;48.534;9.196;2023-05-19T07:42:08;6.20;;;3.40;;
12844;SDS011;68700;48.534;9.196;2023-05-19T07:45:31;4.53;;;3.20;;
12844;SDS011;68700;48.534;9.196;2023-05-19T07:48:53;6.40;;;3.23;;
12844;SDS011;68700;48.534;9.196;2023-05-19T07:52:15;6.97;;;4.17;;
12844;SDS011;68700;48.534;9.196;2023-05-19T07:55:37;8.23;;;3.40;;
12844;SDS011;68700;48.534;9.196;2023-05-19T07:59:00;8.17;;;3.97;;
12844;SDS011;68700;48.534;9.196;2023-05-19T08:02:23;6.67;;;4.00;;
12844;SDS011;68700;48.534;9.196;2023-05-19T08:05:45;7.43;;;3.53;;
12844;SDS011;68700;48.534;9.196;2023-05-19T08:09:07;8.93;;;3.80;;
12844;SDS011;68700;48.534;9.196;2023-05-19T08:12:28;7.43;;;3.73;;
12844;SDS011;68700;48.534;9.196;2023-05-19T08:15:51;7.20;;;4.10;;
12844;SDS011;68700;48.534;9.196;2023-05-19T08:19:19;5.57;;;3.57;;
12844;SDS011;68700;48.534;9.196;2023-05-19T08:22:41;5.43;;;3.50;;
12844;SDS011;68700;48.534;9.196;2023-05-19T08:26:03;6.57;;;3.77;;
12844;SDS011;68700;48.534;9.196;2023-05-19T08:29:25;6.70;;;3.53;;
12844;SDS011;68700;48.534;9.196;2023-05-19T08:32:47;7.97;;;3.73;;
12844;SDS011;68700;48.534;9.196;2023-05-19T08:36:10;6.67;;;3.93;;
12844;SDS011;68700;48.534;9.196;2023-05-19T08:39:32;9.37;;;4.03;;
12844;SDS011;68700;48.534;9.196;2023-05-19T08:42:54;7.40;;;3.90;;
12844;SDS011;68700;48.534;9.196;2023-05-19T08:46:16;8.73;;;3.40;;
12844;SDS011;68700;48.534;9.196;2023-05-19T08:49:41;6.83;;;3.60;;
12844;SDS011;68700;48.534;9.196;2023-05-19T08:53:07;7.97;;;4.23;;
12844;SDS011;68700;48.534;9.196;2023-05-19T08:56:32;9.27;;;3.97;;
12844;SDS011;68700;48.534;9.196;2023-05-19T08:59:54;6.77;;;4.23;;
12844;SDS011;68700;48.534;9.196;2023-05-19T09:03:17;8.07;;;3.70;;
12844;SDS011;68700;48.534;9.196;2023-05-19T09:06:40;9.00;;;4.00;;
12844;SDS011;68700;48.534;9.196;2023-05-19T09:10:06;9.50;;;4.10;;
12844;SDS011;68700;48.534;9.196;2023-05-19T09:13:33;7.97;;;3.77;;
12844;SDS011;68700;48.534;9.196;2023-05-19T09:16:55;6.00;;;3.80;;
12844;SDS011;68700;48.534;9.196;2023-05-19T09:20:16;7.57;;;3.63;;
12844;SDS011;68700;48.534;9.196;2023-05-19T09:23:38;8.30;;;3.73;;
12844;SDS011;68700;48.534;9.196;2023-05-19T09:27:02;8.37;;;3.63;;
12844;SDS011;68700;48.534;9.196;2023-05-19T09:30:24;7.77;;;4.07;;
12844;SDS011;68700;48.534;9.196;2023-05-19T09:33:46;8.00;;;3.97;;
12844;SDS011;68700;48.534;9.196;2023-05-19T09:37:08;5.30;;;3.70;;
12844;SDS011;68700;48.534;9.196;2023-05-19T09:40:32;7.40;;;3.73;;
12844;SDS011;68700;48.534;9.196;2023-05-19T09:43:56;7.53;;;3.50;;
12844;SDS011;68700;48.534;9.196;2023-05-19T09:47:19;8.93;;;3.53;;
12844;SDS011;68700;48.534;9.196;2023-05-19T09:50:41;5.53;;;3.60;;
12844;SDS011;68700;48.534;9.196;2023-05-19T09:54:04;7.40;;;4.00;;
12844;SDS011;68700;48.534;9.196;2023-05-19T09:57:26;5.90;;;3.80;;
12844;SDS011;68700;48.534;9.196;2023-05-19T10:00:49;6.20;;;3.53;;
12844;SDS011;68700;48.534;9.196;2023-05-19T10:04:13;4.80;;;3.57;;
12844;SDS011;68700;48.534;9.196;2023-05-19T10:07:36;6.67;;;3.83;;
12844;SDS011;68700;48.534;9.196;2023-05-19T10:10:59;6.67;;;3.73;;
12844;SDS011;68700;48.534;9.196;2023-05-19T10:14:22;9.20;;;3.50;;
12844;SDS011;68700;48.534;9.196;2023-05-19T10:17:46;5.63;;;3.23;;
12844;SDS011;68700;48.534;9.196;2023-05-19T10:21:10;6.60;;;3.77;;
12844;SDS011;68700;48.534;9.196;2023-05-19T10:24:33;6.47;;;3.90;;
12844;SDS011;68700;48.534;9.196;2023-05-19T10:27:56;7.20;;;3.40;;
12844;SDS011;68700;48.534;9.196;2023-05-19T10:31:21;8.03;;;3.73;;
12844;SDS011;68700;48.534;9.196;2023-05-19T10:35:04;7.10;;;3.33;;
12844;SDS011;68700;48.534;9.196;2023-05-19T10:38:50;6.87;;;3.90;;
12844;SDS011;68700;48.534;9.196;2023-05-19T10:42:23;7.37;;;3.70;;
12844;SDS011;68700;48.534;9.196;2023-05-19T10:45:50;8.30;;;3.73;;
12844;SDS011;68700;48.534;9.196;2023-05-19T10:49:18;6.40;;;3.43;;
12844;SDS011;68700;48.534;9.196;2023-05-19T10:52:42;8.50;;;3.67;;
12844;SDS011;68700;48.534;9.196;2023-05-19T10:56:04;4.27;;;3.10;;
12844;SDS011;68700;48.534;9.196;2023-05-19T10:59:29;4.77;;;3.50;;
12844;SDS011;68700;48.534;9.196;2023-05-19T11:02:52;5.70;;;3.30;;
12844;SDS011;68700;48.534;9.196;2023-05-19T11:06:19;6.17;;;3.37;;
12844;SDS011;68700;48.534;9.196;2023-05-19T11:09:49;8.73;;;3.50;;
12844;SDS011;68700;48.534;9.196;2023-05-19T11:13:17;7.77;;;4.37;;
12844;SDS011;68700;48.534;9.196;2023-05-19T11:16:41;6.70;;;3.03;;
12844;SDS011;68700;48.534;9.196;2023-05-19T11:20:07;6.50;;;3.63;;
12844;SDS011;68700;48.534;9.196;2023-05-19T11:23:32;4.87;;;3.17;;
12844;SDS011;68700;48.534;9.196;2023-05-19T11:26:59;4.30;;;3.33;;
12844;SDS011;68700;48.534;9.196;2023-05-19T11:30:41;8.63;;;3.10;;
12844;SDS011;68700;48.534;9.196;2023-05-19T11:34:04;5.50;;;3.13;;
12844;SDS011;68700;48.534;9.196;2023-05-19T11:37:27;5.57;;;3.10;;
12844;SDS011;68700;48.534;9.196;2023-05-19T11:40:52;5.30;;;3.37;;
12844;SDS011;68700;48.534;9.196;2023-05-19T11:44:16;6.40;;;3.57;;
12844;SDS011;68700;48.534;9.196;2023-05-19T11:47:38;5.83;;;3.40;;
12844;SDS011;68700;48.534;9.196;2023-05-19T11:51:00;4.57;;;2.77;;
12844;SDS011;68700;48.534;9.196;2023-05-19T11:54:28;6.47;;;3.20;;
12844;SDS011;68700;48.534;9.196;2023-05-19T11:57:55;5.47;;;3.33;;
12844;SDS011;68700;48.534;9.196;2023-05-19T12:01:19;6.20;;;3.20;;
12844;SDS011;68700;48.534;9.196;2023-05-19T12:04:45;6.60;;;3.93;;
12844;SDS011;68700;48.534;9.196;2023-05-19T12:08:08;5.20;;;3.17;;
12844;SDS011;68700;48.534;9.196;2023-05-19T12:11:30;5.67;;;3.20;;
12844;SDS011;68700;48.534;9.196;2023-05-19T12:14:52;9.07;;;3.10;;
12844;SDS011;68700;48.534;9.196;2023-05-19T12:18:15;5.67;;;3.37;;
12844;SDS011;68700;48.534;9.196;2023-05-19T12:21:37;8.13;;;3.60;;
12844;SDS011;68700;48.534;9.196;2023-05-19T12:24:59;4.77;;;3.30;;
12844;SDS011;68700;48.534;9.196;2023-05-19T12:28:21;6.40;;;3.50;;
12844;SDS011;68700;48.534;9.196;2023-05-19T12:31:45;4.30;;;3.10;;
12844;SDS011;68700;48.534;9.196;2023-05-19T12:35:09;5.23;;;3.20;;
12844;SDS011;68700;48.534;9.196;2023-05-19T12:38:31;4.70;;;3.07;;
12844;SDS011;68700;48.534;9.196;2023-05-19T12:41:59;4.73;;;3.40;;
12844;SDS011;68700;48.534;9.196;2023-05-19T12:45:22;3.67;;;3.13;;
12844;SDS011;68700;48.534;9.196;2023-05-19T12:48:46;4.43;;;3.23;;
12844;SDS011;68700;48.534;9.196;2023-05-19T12:52:10;5.37;;;3.63;;
12844;SDS011;68700;48.534;9.196;2023-05-19T12:55:35;5.07;;;3.33;;
12844;SDS011;68700;48.534;9.196;2023-05-19T12:58:59;6.40;;;3.43;;
12844;SDS011;68700;48.534;9.196;2023-05-19T13:02:22;5.87;;;3.30;;
12844;SDS011;68700;48.534;9.196;2023-05-19T13:05:45;4.93;;;3.60;;
12844;SDS011;68700;48.534;9.196;2023-05-19T13:09:10;6.90;;;3.80;;
12844;SDS011;68700;48.534;9.196;2023-05-19T13:12:32;7.70;;;3.37;;
12844;SDS011;68700;48.534;9.196;2023-05-19T13:15:53;6.60;;;3.83;;
12844;SDS011;68700;48.534;9.196;2023-05-19T13:19:17;5.17;;;3.70;;
12844;SDS011;68700;48.534;9.196;2023-05-19T13:22:40;4.37;;;3.70;;
12844;SDS011;68700;48.534;9.196;2023-05-19T13:26:03;4.40;;;3.53;;
12844;SDS011;68700;48.534;9.196;2023-05-19T13:29:26;7.37;;;3.67;;
12844;SDS011;68700;48.534;9.196;2023-05-19T13:32:48;5.93;;;3.83;;
12844;SDS011;68700;48.534;9.196;2023-05-19T13:36:11;10.77;;;5.80;;
12844;SDS011;68700;48.534;9.196;2023-05-19T13:39:33;6.20;;;4.10;;
12844;SDS011;68700;48.534;9.196;2023-05-19T13:42:56;10.00;;;4.40;;
12844;SDS011;68700;48.534;9.196;2023-05-19T13:46:18;4.83;;;3.77;;
12844;SDS011;68700;48.534;9.196;2023-05-19T13:49:40;6.13;;;3.70;;
12844;SDS011;68700;48.534;9.196;2023-05-19T13:53:02;5.47;;;3.43;;
12844;SDS011;68700;48.534;9.196;2023-05-19T13:56:24;7.57;;;3.90;;
12844;SDS011;68700;48.534;9.196;2023-05-19T13:59:48;7.37;;;3.80;;
12844;SDS011;68700;48.534;9.196;2023-05-19T14:03:10;4.70;;;3.50;;
12844;SDS011;68700;48.534;9.196;2023-05-19T14:06:35;6.03;;;3.83;;
12844;SDS011;68700;48.534;9.196;2023-05-19T14:09:57;5.20;;;3.83;;
12844;SDS011;68700;48.534;9.196;2023-05-19T14:13:19;5.70;;;4.13;;
12844;SDS011;68700;48.534;9.196;2023-05-19T14:16:42;6.43;;;3.70;;
12844;SDS011;68700;48.534;9.196;2023-05-19T14:20:04;5.73;;;3.77;;
12844;SDS011;68700;48.534;9.196;2023-05-19T14:23:27;5.10;;;4.30;;
12844;SDS011;68700;48.534;9.196;2023-05-19T14:26:49;5.07;;;4.10;;
12844;SDS011;68700;48.534;9.196;2023-05-19T14:30:11;5.93;;;4.70;;
12844;SDS011;68700;48.534;9.196;2023-05-19T14:33:35;6.00;;;4.67;;
12844;SDS011;68700;48.534;9.196;2023-05-19T14:36:56;9.37;;;5.20;;
12844;SDS011;68700;48.534;9.196;2023-05-19T14:40:18;8.47;;;4.93;;
12844;SDS011;68700;48.534;9.196;2023-05-19T14:43:40;8.57;;;5.00;;
12844;SDS011;68700;48.534;9.196;2023-05-19T14:47:02;10.23;;;4.77;;
12844;SDS011;68700;48.534;9.196;2023-05-19T14:50:27;7.80;;;5.23;;
12844;SDS011;68700;48.534;9.196;2023-05-19T14:53:49;7.77;;;5.07;;
12844;SDS011;68700;48.534;9.196;2023-05-19T14:57:11;9.90;;;5.10;;
12844;SDS011;68700;48.534;9.196;2023-05-19T15:00:33;10.90;;;5.60;;
12844;SDS011;68700;48.534;9.196;2023-05-19T15:03:54;7.53;;;5.10;;
12844;SDS011;68700;48.534;9.196;2023-05-19T15:07:18;10.10;;;5.17;;
12844;SDS011;68700;48.534;9.196;2023-05-19T15:10:39;8.63;;;5.37;;
12844;SDS011;68700;48.534;9.196;2023-05-19T15:14:01;8.30;;;5.20;;
12844;SDS011;68700;48.534;9.196;2023-05-19T15:17:23;9.23;;;5.90;;
12844;SDS011;68700;48.534;9.196;2023-05-19T15:20:45;8.73;;;6.40;;
12844;SDS011;68700;48.534;9.196;2023-05-19T15:24:09;11.53;;;6.03;;
12844;SDS011;68700;48.534;9.196;2023-05-19T15:27:31;10.97;;;5.73;;
12844;SDS011;68700;48.534;9.196;2023-05-19T15:30:54;11.43;;;5.50;;
12844;SDS011;68700;48.534;9.196;2023-05-19T15:34:16;8.90;;;5.70;;
12844;SDS011;68700;48.534;9.196;2023-05-19T15:37:38;11.43;;;5.90;;
12844;SDS011;68700;48.534;9.196;2023-05-19T15:41:01;10.00;;;5.27;;
12844;SDS011;68700;48.534;9.196;2023-05-19T15:44:26;9.93;;;5.60;;
12844;SDS011;68700;48.534;9.196;2023-05-19T15:47:49;11.03;;;5.27;;
12844;SDS011;68700;48.534;9.196;2023-05-19T15:51:10;7.93;;;4.80;;
12844;SDS011;68700;48.534;9.196;2023-05-19T15:54:33;11.30;;;5.10;;
12844;SDS011;68700;48.534;9.196;2023-05-19T15:57:56;9.20;;;5.23;;
12844;SDS011;68700;48.534;9.196;2023-05-19T16:01:18;9.43;;;5.20;;
12844;SDS011;68700;48.534;9.196;2023-05-19T16:04:40;7.97;;;4.73;;
12844;SDS011;68700;48.534;9.196;2023-05-19T16:08:02;6.93;;;5.10;;
12844;SDS011;68700;48.534;9.196;2023-05-19T16:11:24;7.97;;;4.60;;
12844;SDS011;68700;48.534;9.196;2023-05-19T16:14:47;8.57;;;4.80;;
12844;SDS011;68700;48.534;9.196;2023-05-19T16:18:09;7.80;;;4.93;;
12844;SDS011;68700;48.534;9.196;2023-05-19T16:21:31;9.93;;;6.20;;
12844;SDS011;68700;48.534;9.196;2023-05-19T16:24:53;7.70;;;5.40;;
12844;SDS011;68700;48.534;9.196;2023-05-19T16:28:15;8.80;;;4.43;;
12844;SDS011;68700;48.534;9.196;2023-05-19T16:31:38;7.80;;;5.50;;
12844;SDS011;68700;48.534;9.196;2023-05-19T16:35:00;9.33;;;5.70;;
12844;SDS011;68700;48.534;9.196;2023-05-19T16:38:22;14.00;;;6.30;;
12844;SDS011;68700;48.534;9.196;2023-05-19T16:41:45;11.60;;;5.37;;
12844;SDS011;68700;48.534;9.196;2023-05-19T16:45:07;8.63;;;4.40;;
12844;SDS011;68700;48.534;9.196;2023-05-19T16:48:31;8.57;;;5.10;;
12844;SDS011;68700;48.534;9.196;2023-05-19T16:51:53;7.93;;;5.00;;
12844;SDS011;68700;48.534;9.196;2023-05-19T16:55:15;7.87;;;4.30;;
12844;SDS011;68700;48.534;9.196;2023-05-19T16:58:39;8.97;;;4.13;;
12844;SDS011;68700;48.534;9.196;2023-05-19T17:02:01;5.33;;;3.47;;
12844;SDS011;68700;48.534;9.196;2023-05-19T17:05:24;5.53;;;3.87;;
12844;SDS011;68700;48.534;9.196;2023-05-19T17:08:46;7.23;;;3.97;;
12844;SDS011;68700;48.534;9.196;2023-05-19T17:12:08;6.70;;;4.07;;
12844;SDS011;68700;48.534;9.196;2023-05-19T17:15:32;6.47;;;3.40;;
12844;SDS011;68700;48.534;9.196;2023-05-19T17:18:54;8.67;;;4.17;;
12844;SDS011;68700;48.534;9.196;2023-05-19T17:22:17;8.97;;;3.37;;
12844;SDS011;68700;48.534;9.196;2023-05-19T17:25:39;6.83;;;4.27;;
12844;SDS011;68700;48.534;9.196;2023-05-19T17:29:01;8.43;;;4.10;;
12844;SDS011;68700;48.534;9.196;2023-05-19T17:32:23;8.00;;;3.43;;
12844;SDS011;68700;48.534;9.196;2023-05-19T17:35:47;7.40;;;4.27;;
12844;SDS011;68700;48.534;9.196;2023-05-19T17:39:10;5.57;;;3.90;;
12844;SDS011;68700;48.534;9.196;2023-05-19T17:42:32;5.57;;;3.80;;
12844;SDS011;68700;48.534;9.196;2023-05-19T17:45:54;5.20;;;4.17;;
12844;SDS011;68700;48.534;9.196;2023-05-19T17:49:15;8.77;;;4.40;;
12844;SDS011;68700;48.534;9.196;2023-05-19T17:52:37;6.87;;;4.40;;
12844;SDS011;68700;48.534;9.196;2023-05-19T17:56:02;6.13;;;3.90;;
12844;SDS011;68700;48.534;9.196;2023-05-19T17:59:26;7.23;;;4.60;;
12844;SDS011;68700;48.534;9.196;2023-05-19T18:02:49;6.03;;;3.67;;
12844;SDS011;68700;48.534;9.196;2023-05-19T18:06:11;6.80;;;3.53;;
12844;SDS011;68700;48.534;9.196;2023-05-19T18:09:33;8.17;;;3.50;;
12844;SDS011;68700;48.534;9.196;2023-05-19T18:12:59;6.17;;;3.33;;
12844;SDS011;68700;48.534;9.196;2023-05-19T18:16:21;7.30;;;3.70;;
12844;SDS011;68700;48.534;9.196;2023-05-19T18:19:44;4.63;;;3.73;;
12844;SDS011;68700;48.534;9.196;2023-05-19T18:23:06;8.93;;;4.20;;
12844;SDS011;68700;48.534;9.196;2023-05-19T18:26:28;4.83;;;3.30;;
12844;SDS011;68700;48.534;9.196;2023-05-19T18:29:51;5.47;;;3.73;;
12844;SDS011;68700;48.534;9.196;2023-05-19T18:33:13;6.23;;;3.70;;
12844;SDS011;68700;48.534;9.196;2023-05-19T18:36:35;5.23;;;3.97;;
12844;SDS011;68700;48.534;9.196;2023-05-19T18:39:57;4.83;;;3.90;;
12844;SDS011;68700;48.534;9.196;2023-05-19T18:43:20;4.83;;;3.50;;
12844;SDS011;68700;48.534;9.196;2023-05-19T18:46:43;4.67;;;3.90;;
12844;SDS011;68700;48.534;9.196;2023-05-19T18:50:06;5.70;;;3.80;;
12844;SDS011;68700;48.534;9.196;2023-05-19T18:53:29;5.83;;;4.40;;
12844;SDS011;68700;48.534;9.196;2023-05-19T18:56:53;8.57;;;5.33;;
12844;SDS011;68700;48.534;9.196;2023-05-19T19:00:15;6.97;;;4.40;;
12844;SDS011;68700;48.534;9.196;2023-05-19T19:03:39;6.60;;;4.20;;
12844;SDS011;68700;48.534;9.196;2023-05-19T19:07:01;7.17;;;4.90;;
12844;SDS011;68700;48.534;9.196;2023-05-19T19:10:23;6.50;;;4.73;;
12844;SDS011;68700;48.534;9.196;2023-05-19T19:13:46;5.53;;;4.70;;
12844;SDS011;68700;48.534;9.196;2023-05-19T19:17:10;4.60;;;4.13;;
12844;SDS011;68700;48.534;9.196;2023-05-19T19:20:33;6.80;;;4.77;;
12844;SDS011;68700;48.534;9.196;2023-05-19T19:23:55;7.67;;;4.93;;
12844;SDS011;68700;48.534;9.196;2023-05-19T19:27:17;4.67;;;4.20;;
12844;SDS011;68700;48.534;9.196;2023-05-19T19:30:40;6.70;;;4.73;;
12844;SDS011;68700;48.534;9.196;2023-05-19T19:34:02;6.30;;;4.47;;
12844;SDS011;68700;48.534;9.196;2023-05-19T19:37:29;8.40;;;5.50;;
12844;SDS011;68700;48.534;9.196;2023-05-19T19:40:51;7.43;;;5.47;;
12844;SDS011;68700;48.534;9.196;2023-05-19T19:44:13;6.03;;;4.73;;
12844;SDS011;68700;48.534;9.196;2023-05-19T19:47:34;6.30;;;4.80;;
12844;SDS011;68700;48.534;9.196;2023-05-19T19:50:57;7.17;;;5.80;;
12844;SDS011;68700;48.534;9.196;2023-05-19T19:54:20;8.77;;;6.67;;
12844;SDS011;68700;48.534;9.196;2023-05-19T19:57:42;6.67;;;5.50;;
12844;SDS011;68700;48.534;9.196;2023-05-19T20:01:06;6.23;;;5.63;;
12844;SDS011;68700;48.534;9.196;2023-05-19T20:04:28;7.93;;;5.30;;
12844;SDS011;68700;48.534;9.196;2023-05-19T20:07:50;8.87;;;6.43;;
12844;SDS011;68700;48.534;9.196;2023-05-19T20:11:13;8.33;;;6.37;;
12844;SDS011;68700;48.534;9.196;2023-05-19T20:14:35;9.53;;;6.40;;
12844;SDS011;68700;48.534;9.196;2023-05-19T20:17:57;10.38;;;8.43;;
12844;SDS011;68700;48.534;9.196;2023-05-19T20:21:19;7.57;;;6.50;;
12844;SDS011;68700;48.534;9.196;2023-05-19T20:24:41;7.87;;;6.03;;
12844;SDS011;68700;48.534;9.196;2023-05-19T20:28:04;10.33;;;6.93;;